sensor_id;sensor_type;location;lat;lon;timestamp;temperature;humidity
72128;DHT22;60000;51.030;7.024;2023-06-10T00:00:43;20.88;56.73
72128;DHT22;60000;51.030;7.024;2023-06-10T00:03:08;20.83;56.68
72128;DHT22;60000;51.030;7.024;2023-06-10T00:05:34;20.80;56.65
72128;DHT22;60000;51.030;7.024;2023-06-10T00:08:01;20.79;56.83
72128;DHT22;60000;51.030;7.024;2023-06-10T00:10:36;20.76;57.08
72128;DHT22;60000;51.030;7.024;2023-06-10T00:13:06;20.72;57.28
72128;DHT22;60000;51.030;7.024;2023-06-10T00:15:35;20.67;57.16
72128;DHT22;60000;51.030;7.024;2023-06-10T00:18:03;20.64;57.35
72128;DHT22;60000;51.030;7.024;2023-06-10T00:20:29;20.60;57.55
72128;DHT22;60000;51.030;7.024;2023-06-10T00:22:56;20.57;57.33
72128;DHT22;60000;51.030;7.024;2023-06-10T00:25:22;20.54;57.39
72128;DHT22;60000;51.030;7.024;2023-06-10T00:27:48;20.52;57.47
72128;DHT22;60000;51.030;7.024;2023-06-10T00:30:13;20.47;57.61
72128;DHT22;60000;51.030;7.024;2023-06-10T00:32:39;20.43;57.79
72128;DHT22;60000;51.030;7.024;2023-06-10T00:35:06;20.35;58.09
72128;DHT22;60000;51.030;7.024;2023-06-10T00:37:32;20.29;58.58
72128;DHT22;60000;51.030;7.024;2023-06-10T00:39:58;20.16;58.98
72128;DHT22;60000;51.030;7.024;2023-06-10T00:42:23;20.05;59.52
72128;DHT22;60000;51.030;7.024;2023-06-10T00:44:50;19.94;59.78
72128;DHT22;60000;51.030;7.024;2023-06-10T00:47:16;19.82;60.38
72128;DHT22;60000;51.030;7.024;2023-06-10T00:49:41;19.73;60.98
72128;DHT22;60000;51.030;7.024;2023-06-10T00:52:08;19.61;61.27
72128;DHT22;60000;51.030;7.024;2023-06-10T00:54:33;19.53;61.57
72128;DHT22;60000;51.030;7.024;2023-06-10T00:57:01;19.44;61.86
72128;DHT22;60000;51.030;7.024;2023-06-10T00:59:28;19.37;62.22
72128;DHT22;60000;51.030;7.024;2023-06-10T01:01:53;19.26;62.54
72128;DHT22;60000;51.030;7.024;2023-06-10T01:04:20;19.17;62.62
72128;DHT22;60000;51.030;7.024;2023-06-10T01:07:25;19.09;63.16
72128;DHT22;60000;51.030;7.024;2023-06-10T01:10:08;18.99;63.54
72128;DHT22;60000;51.030;7.024;2023-06-10T01:15:17;18.79;64.08
72128;DHT22;60000;51.030;7.024;2023-06-10T01:17:56;18.73;64.43
72128;DHT22;60000;51.030;7.024;2023-06-10T01:20:22;18.65;64.72
72128;DHT22;60000;51.030;7.024;2023-06-10T01:22:47;18.59;64.99
72128;DHT22;60000;51.030;7.024;2023-06-10T01:25:13;18.48;64.95
72128;DHT22;60000;51.030;7.024;2023-06-10T01:27:40;18.41;65.54
72128;DHT22;60000;51.030;7.024;2023-06-10T01:30:12;18.34;65.41
72128;DHT22;60000;51.030;7.024;2023-06-10T01:32:48;18.27;65.53
72128;DHT22;60000;51.030;7.024;2023-06-10T01:35:15;18.20;65.82
72128;DHT22;60000;51.030;7.024;2023-06-10T01:37:43;18.16;66.23
72128;DHT22;60000;51.030;7.024;2023-06-10T01:40:10;18.10;66.42
72128;DHT22;60000;51.030;7.024;2023-06-10T01:42:37;18.07;66.85
72128;DHT22;60000;51.030;7.024;2023-06-10T01:45:03;17.97;66.65
72128;DHT22;60000;51.030;7.024;2023-06-10T01:47:28;17.93;66.83
72128;DHT22;60000;51.030;7.024;2023-06-10T01:49:54;17.87;67.25
72128;DHT22;60000;51.030;7.024;2023-06-10T01:52:19;17.86;67.58
72128;DHT22;60000;51.030;7.024;2023-06-10T01:54:45;17.82;67.46
72128;DHT22;60000;51.030;7.024;2023-06-10T01:57:10;17.76;67.35
72128;DHT22;60000;51.030;7.024;2023-06-10T01:59:35;17.73;67.35
72128;DHT22;60000;51.030;7.024;2023-06-10T02:02:03;17.70;67.49
72128;DHT22;60000;51.030;7.024;2023-06-10T02:04:28;17.66;67.41
72128;DHT22;60000;51.030;7.024;2023-06-10T02:06:53;17.62;67.61
72128;DHT22;60000;51.030;7.024;2023-06-10T02:09:21;17.61;67.87
72128;DHT22;60000;51.030;7.024;2023-06-10T02:11:46;17.56;68.05
72128;DHT22;60000;51.030;7.024;2023-06-10T02:14:11;17.52;68.07
72128;DHT22;60000;51.030;7.024;2023-06-10T02:16:37;17.49;68.70
72128;DHT22;60000;51.030;7.024;2023-06-10T02:19:02;17.46;68.44
72128;DHT22;60000;51.030;7.024;2023-06-10T02:21:31;17.42;68.59
72128;DHT22;60000;51.030;7.024;2023-06-10T02:23:57;17.38;68.78
72128;DHT22;60000;51.030;7.024;2023-06-10T02:26:22;17.34;68.81
72128;DHT22;60000;51.030;7.024;2023-06-10T02:28:48;17.32;69.01
72128;DHT22;60000;51.030;7.024;2023-06-10T02:31:13;17.31;69.14
72128;DHT22;60000;51.030;7.024;2023-06-10T02:33:39;17.25;69.37
72128;DHT22;60000;51.030;7.024;2023-06-10T02:36:06;17.22;69.39
72128;DHT22;60000;51.030;7.024;2023-06-10T02:38:31;17.18;69.44
72128;DHT22;60000;51.030;7.024;2023-06-10T02:40:56;17.17;69.47
72128;DHT22;60000;51.030;7.024;2023-06-10T02:43:22;17.15;69.90
72128;DHT22;60000;51.030;7.024;2023-06-10T02:45:47;17.14;69.73
72128;DHT22;60000;51.030;7.024;2023-06-10T02:48:13;17.17;70.17
72128;DHT22;60000;51.030;7.024;2023-06-10T02:50:38;17.19;69.66
72128;DHT22;60000;51.030;7.024;2023-06-10T02:53:05;17.19;70.04
72128;DHT22;60000;51.030;7.024;2023-06-10T02:55:31;17.18;70.22
72128;DHT22;60000;51.030;7.024;2023-06-10T02:57:57;17.19;70.34
72128;DHT22;60000;51.030;7.024;2023-06-10T03:00:23;17.24;70.72
72128;DHT22;60000;51.030;7.024;2023-06-10T03:02:49;17.27;70.84
72128;DHT22;60000;51.030;7.024;2023-06-10T03:05:16;17.25;70.27
72128;DHT22;60000;51.030;7.024;2023-06-10T03:07:42;17.21;70.46
72128;DHT22;60000;51.030;7.024;2023-06-10T03:10:07;17.17;70.46
72128;DHT22;60000;51.030;7.024;2023-06-10T03:12:33;17.11;70.71
72128;DHT22;60000;51.030;7.024;2023-06-10T03:14:58;17.06;70.41
72128;DHT22;60000;51.030;7.024;2023-06-10T03:17:24;16.97;70.59
72128;DHT22;60000;51.030;7.024;2023-06-10T03:19:49;16.92;70.88
72128;DHT22;60000;51.030;7.024;2023-06-10T03:22:16;16.84;71.37
72128;DHT22;60000;51.030;7.024;2023-06-10T03:24:41;16.83;71.91
72128;DHT22;60000;51.030;7.024;2023-06-10T03:27:12;16.76;72.31
72128;DHT22;60000;51.030;7.024;2023-06-10T03:29:38;16.73;72.58
72128;DHT22;60000;51.030;7.024;2023-06-10T03:32:03;16.67;73.04
72128;DHT22;60000;51.030;7.024;2023-06-10T03:34:29;16.59;72.84
72128;DHT22;60000;51.030;7.024;2023-06-10T03:36:56;16.59;73.39
72128;DHT22;60000;51.030;7.024;2023-06-10T03:39:21;16.56;73.66
72128;DHT22;60000;51.030;7.024;2023-06-10T03:41:46;16.55;73.76
72128;DHT22;60000;51.030;7.024;2023-06-10T03:44:13;16.50;73.55
72128;DHT22;60000;51.030;7.024;2023-06-10T03:46:38;16.50;73.66
72128;DHT22;60000;51.030;7.024;2023-06-10T03:49:04;16.50;73.92
72128;DHT22;60000;51.030;7.024;2023-06-10T03:51:30;16.55;74.14
72128;DHT22;60000;51.030;7.024;2023-06-10T03:53:55;16.57;74.09
72128;DHT22;60000;51.030;7.024;2023-06-10T03:56:20;16.61;73.67
72128;DHT22;60000;51.030;7.024;2023-06-10T03:58:46;16.63;74.11
72128;DHT22;60000;51.030;7.024;2023-06-10T04:01:11;16.64;74.33
72128;DHT22;60000;51.030;7.024;2023-06-10T04:03:38;16.61;74.36
72128;DHT22;60000;51.030;7.024;2023-06-10T04:06:04;16.60;74.32
72128;DHT22;60000;51.030;7.024;2023-06-10T04:08:30;16.60;74.42
72128;DHT22;60000;51.030;7.024;2023-06-10T04:10:56;16.59;74.63
72128;DHT22;60000;51.030;7.024;2023-06-10T04:13:23;16.57;74.91
72128;DHT22;60000;51.030;7.024;2023-06-10T04:15:48;16.57;74.97
72128;DHT22;60000;51.030;7.024;2023-06-10T04:18:14;16.59;75.31
72128;DHT22;60000;51.030;7.024;2023-06-10T04:20:40;16.57;75.46
72128;DHT22;60000;51.030;7.024;2023-06-10T04:23:05;16.60;75.75
72128;DHT22;60000;51.030;7.024;2023-06-10T04:25:30;16.59;75.82
72128;DHT22;60000;51.030;7.024;2023-06-10T04:27:56;16.61;76.09
72128;DHT22;60000;51.030;7.024;2023-06-10T04:30:21;16.64;76.04
72128;DHT22;60000;51.030;7.024;2023-06-10T04:32:47;16.64;75.98
72128;DHT22;60000;51.030;7.024;2023-06-10T04:35:13;16.70;76.55
72128;DHT22;60000;51.030;7.024;2023-06-10T04:37:40;16.71;76.51
72128;DHT22;60000;51.030;7.024;2023-06-10T04:40:07;16.74;76.40
72128;DHT22;60000;51.030;7.024;2023-06-10T04:42:32;16.76;76.00
72128;DHT22;60000;51.030;7.024;2023-06-10T04:44:57;16.79;75.78
72128;DHT22;60000;51.030;7.024;2023-06-10T04:47:23;16.84;76.24
72128;DHT22;60000;51.030;7.024;2023-06-10T04:49:48;16.88;76.13
72128;DHT22;60000;51.030;7.024;2023-06-10T04:52:14;16.94;76.13
72128;DHT22;60000;51.030;7.024;2023-06-10T04:54:39;17.00;76.16
72128;DHT22;60000;51.030;7.024;2023-06-10T04:57:06;17.03;76.06
72128;DHT22;60000;51.030;7.024;2023-06-10T04:59:33;17.11;75.89
72128;DHT22;60000;51.030;7.024;2023-06-10T05:01:58;17.18;75.97
72128;DHT22;60000;51.030;7.024;2023-06-10T05:04:24;17.18;75.75
72128;DHT22;60000;51.030;7.024;2023-06-10T05:06:49;17.25;75.63
72128;DHT22;60000;51.030;7.024;2023-06-10T05:09:15;17.31;75.40
72128;DHT22;60000;51.030;7.024;2023-06-10T05:11:40;17.40;75.53
72128;DHT22;60000;51.030;7.024;2023-06-10T05:14:06;17.46;75.53
72128;DHT22;60000;51.030;7.024;2023-06-10T05:16:31;17.52;75.61
72128;DHT22;60000;51.030;7.024;2023-06-10T05:18:57;17.58;75.60
72128;DHT22;60000;51.030;7.024;2023-06-10T05:21:22;17.63;75.68
72128;DHT22;60000;51.030;7.024;2023-06-10T05:23:48;17.70;75.67
72128;DHT22;60000;51.030;7.024;2023-06-10T05:26:14;17.77;75.07
72128;DHT22;60000;51.030;7.024;2023-06-10T05:28:39;17.85;74.49
72128;DHT22;60000;51.030;7.024;2023-06-10T05:31:05;17.93;73.78
72128;DHT22;60000;51.030;7.024;2023-06-10T05:33:30;18.00;73.58
72128;DHT22;60000;51.030;7.024;2023-06-10T05:35:55;18.11;73.25
72128;DHT22;60000;51.030;7.024;2023-06-10T05:38:21;18.20;73.20
72128;DHT22;60000;51.030;7.024;2023-06-10T05:40:46;18.28;73.03
72128;DHT22;60000;51.030;7.024;2023-06-10T05:43:12;18.37;72.67
72128;DHT22;60000;51.030;7.024;2023-06-10T05:45:37;18.48;72.17
72128;DHT22;60000;51.030;7.024;2023-06-10T05:48:03;18.59;71.71
72128;DHT22;60000;51.030;7.024;2023-06-10T05:50:29;18.71;71.57
72128;DHT22;60000;51.030;7.024;2023-06-10T05:52:54;18.88;71.10
72128;DHT22;60000;51.030;7.024;2023-06-10T05:55:20;19.16;70.81
72128;DHT22;60000;51.030;7.024;2023-06-10T05:57:45;19.53;70.54
72128;DHT22;60000;51.030;7.024;2023-06-10T06:00:11;19.94;69.98
72128;DHT22;60000;51.030;7.024;2023-06-10T06:02:37;20.42;68.66
72128;DHT22;60000;51.030;7.024;2023-06-10T06:05:02;20.70;65.28
72128;DHT22;60000;51.030;7.024;2023-06-10T06:07:28;21.04;63.15
72128;DHT22;60000;51.030;7.024;2023-06-10T06:09:53;21.49;60.77
72128;DHT22;60000;51.030;7.024;2023-06-10T06:12:19;21.94;59.53
72128;DHT22;60000;51.030;7.024;2023-06-10T06:14:44;22.47;57.98
72128;DHT22;60000;51.030;7.024;2023-06-10T06:17:10;22.88;55.45
72128;DHT22;60000;51.030;7.024;2023-06-10T06:19:35;23.33;54.28
72128;DHT22;60000;51.030;7.024;2023-06-10T06:22:01;23.79;52.85
72128;DHT22;60000;51.030;7.024;2023-06-10T06:24:27;24.28;51.46
72128;DHT22;60000;51.030;7.024;2023-06-10T06:26:52;24.63;50.61
72128;DHT22;60000;51.030;7.024;2023-06-10T06:29:18;25.02;49.58
72128;DHT22;60000;51.030;7.024;2023-06-10T06:31:44;25.38;48.73
72128;DHT22;60000;51.030;7.024;2023-06-10T06:34:09;25.79;48.59
72128;DHT22;60000;51.030;7.024;2023-06-10T06:36:35;26.10;47.45
72128;DHT22;60000;51.030;7.024;2023-06-10T06:39:06;26.29;46.80
72128;DHT22;60000;51.030;7.024;2023-06-10T06:41:34;26.53;46.66
72128;DHT22;60000;51.030;7.024;2023-06-10T06:43:59;26.72;46.05
72128;DHT22;60000;51.030;7.024;2023-06-10T06:46:28;27.02;46.42
72128;DHT22;60000;51.030;7.024;2023-06-10T06:48:54;27.35;45.44
72128;DHT22;60000;51.030;7.024;2023-06-10T06:51:19;27.56;43.75
72128;DHT22;60000;51.030;7.024;2023-06-10T06:53:45;27.64;42.27
72128;DHT22;60000;51.030;7.024;2023-06-10T06:56:11;28.00;41.81
72128;DHT22;60000;51.030;7.024;2023-06-10T06:58:37;28.31;43.01
72128;DHT22;60000;51.030;7.024;2023-06-10T07:01:02;28.55;39.87
72128;DHT22;60000;51.030;7.024;2023-06-10T07:03:28;28.89;38.96
72128;DHT22;60000;51.030;7.024;2023-06-10T07:05:53;29.31;39.67
72128;DHT22;60000;51.030;7.024;2023-06-10T07:08:19;29.90;39.57
72128;DHT22;60000;51.030;7.024;2023-06-10T07:10:44;30.26;39.13
72128;DHT22;60000;51.030;7.024;2023-06-10T07:13:09;30.60;39.74
72128;DHT22;60000;51.030;7.024;2023-06-10T07:15:35;30.65;37.51
72128;DHT22;60000;51.030;7.024;2023-06-10T07:18:00;30.91;36.64
72128;DHT22;60000;51.030;7.024;2023-06-10T07:20:26;31.10;35.84
72128;DHT22;60000;51.030;7.024;2023-06-10T07:22:51;31.07;35.74
72128;DHT22;60000;51.030;7.024;2023-06-10T07:25:17;31.08;36.12
72128;DHT22;60000;51.030;7.024;2023-06-10T07:27:42;31.41;36.09
72128;DHT22;60000;51.030;7.024;2023-06-10T07:30:08;31.63;35.08
72128;DHT22;60000;51.030;7.024;2023-06-10T07:32:34;31.63;35.26
72128;DHT22;60000;51.030;7.024;2023-06-10T07:34:59;32.00;35.51
72128;DHT22;60000;51.030;7.024;2023-06-10T07:37:25;32.32;33.82
72128;DHT22;60000;51.030;7.024;2023-06-10T07:39:50;32.30;34.74
72128;DHT22;60000;51.030;7.024;2023-06-10T07:42:16;32.31;35.14
72128;DHT22;60000;51.030;7.024;2023-06-10T07:44:41;32.27;34.25
72128;DHT22;60000;51.030;7.024;2023-06-10T07:47:06;32.35;34.58
72128;DHT22;60000;51.030;7.024;2023-06-10T07:49:32;32.52;34.62
72128;DHT22;60000;51.030;7.024;2023-06-10T07:51:57;32.50;33.35
72128;DHT22;60000;51.030;7.024;2023-06-10T07:54:23;32.57;34.00
72128;DHT22;60000;51.030;7.024;2023-06-10T07:56:48;32.61;33.82
72128;DHT22;60000;51.030;7.024;2023-06-10T07:59:14;32.34;33.62
72128;DHT22;60000;51.030;7.024;2023-06-10T08:01:40;32.31;33.54
72128;DHT22;60000;51.030;7.024;2023-06-10T08:04:06;32.67;33.47
72128;DHT22;60000;51.030;7.024;2023-06-10T08:06:31;33.00;33.32
72128;DHT22;60000;51.030;7.024;2023-06-10T08:08:57;33.10;33.89
72128;DHT22;60000;51.030;7.024;2023-06-10T08:11:22;33.26;31.04
72128;DHT22;60000;51.030;7.024;2023-06-10T08:13:48;33.68;31.02
72128;DHT22;60000;51.030;7.024;2023-06-10T08:16:13;33.97;31.34
72128;DHT22;60000;51.030;7.024;2023-06-10T08:18:39;34.38;31.41
72128;DHT22;60000;51.030;7.024;2023-06-10T08:21:05;34.22;29.72
72128;DHT22;60000;51.030;7.024;2023-06-10T08:23:30;34.18;30.08
72128;DHT22;60000;51.030;7.024;2023-06-10T08:25:56;33.97;30.67
72128;DHT22;60000;51.030;7.024;2023-06-10T08:28:21;33.81;31.69
72128;DHT22;60000;51.030;7.024;2023-06-10T08:30:47;33.95;31.65
72128;DHT22;60000;51.030;7.024;2023-06-10T08:33:12;34.08;31.60
72128;DHT22;60000;51.030;7.024;2023-06-10T08:35:37;34.24;31.27
72128;DHT22;60000;51.030;7.024;2023-06-10T08:38:03;34.42;31.79
72128;DHT22;60000;51.030;7.024;2023-06-10T08:40:28;34.93;31.45
72128;DHT22;60000;51.030;7.024;2023-06-10T08:43:06;35.14;29.68
72128;DHT22;60000;51.030;7.024;2023-06-10T08:45:34;35.42;29.17
72128;DHT22;60000;51.030;7.024;2023-06-10T08:48:02;35.65;29.46
72128;DHT22;60000;51.030;7.024;2023-06-10T08:50:30;35.51;27.98
72128;DHT22;60000;51.030;7.024;2023-06-10T08:52:57;35.50;28.78
72128;DHT22;60000;51.030;7.024;2023-06-10T08:55:29;35.82;30.04
72128;DHT22;60000;51.030;7.024;2023-06-10T08:57:55;36.18;29.44
72128;DHT22;60000;51.030;7.024;2023-06-10T09:00:21;36.35;28.28
72128;DHT22;60000;51.030;7.024;2023-06-10T09:02:47;36.13;28.08
72128;DHT22;60000;51.030;7.024;2023-06-10T09:05:13;36.20;29.09
72128;DHT22;60000;51.030;7.024;2023-06-10T09:07:39;36.43;28.15
72128;DHT22;60000;51.030;7.024;2023-06-10T09:10:05;36.63;28.91
72128;DHT22;60000;51.030;7.024;2023-06-10T09:12:33;36.90;28.17
72128;DHT22;60000;51.030;7.024;2023-06-10T09:15:00;36.97;27.25
72128;DHT22;60000;51.030;7.024;2023-06-10T09:17:26;37.21;27.39
72128;DHT22;60000;51.030;7.024;2023-06-10T09:19:52;37.17;27.01
72128;DHT22;60000;51.030;7.024;2023-06-10T09:22:21;36.86;26.45
72128;DHT22;60000;51.030;7.024;2023-06-10T09:24:47;36.91;26.52
72128;DHT22;60000;51.030;7.024;2023-06-10T09:27:12;36.76;27.56
72128;DHT22;60000;51.030;7.024;2023-06-10T09:29:52;36.68;27.25
72128;DHT22;60000;51.030;7.024;2023-06-10T09:32:19;36.88;26.83
72128;DHT22;60000;51.030;7.024;2023-06-10T09:34:45;37.04;26.93
72128;DHT22;60000;51.030;7.024;2023-06-10T09:37:11;36.94;25.73
72128;DHT22;60000;51.030;7.024;2023-06-10T09:39:41;36.95;26.70
72128;DHT22;60000;51.030;7.024;2023-06-10T09:42:17;37.04;26.03
72128;DHT22;60000;51.030;7.024;2023-06-10T09:44:49;37.18;28.23
72128;DHT22;60000;51.030;7.024;2023-06-10T09:47:22;37.38;27.67
72128;DHT22;60000;51.030;7.024;2023-06-10T09:49:51;37.04;26.46
72128;DHT22;60000;51.030;7.024;2023-06-10T09:52:24;37.02;26.94
72128;DHT22;60000;51.030;7.024;2023-06-10T09:54:53;36.62;26.42
72128;DHT22;60000;51.030;7.024;2023-06-10T09:57:20;36.44;27.21
72128;DHT22;60000;51.030;7.024;2023-06-10T09:59:47;36.35;28.38
72128;DHT22;60000;51.030;7.024;2023-06-10T10:02:17;36.62;27.69
72128;DHT22;60000;51.030;7.024;2023-06-10T10:04:43;36.36;26.03
72128;DHT22;60000;51.030;7.024;2023-06-10T10:07:10;36.00;24.75
72128;DHT22;60000;51.030;7.024;2023-06-10T10:09:37;36.44;25.93
72128;DHT22;60000;51.030;7.024;2023-06-10T10:12:09;36.74;25.53
72128;DHT22;60000;51.030;7.024;2023-06-10T10:14:35;36.41;26.43
72128;DHT22;60000;51.030;7.024;2023-06-10T10:17:04;36.35;27.13
72128;DHT22;60000;51.030;7.024;2023-06-10T10:19:32;36.18;26.16
72128;DHT22;60000;51.030;7.024;2023-06-10T10:22:10;35.62;27.16
72128;DHT22;60000;51.030;7.024;2023-06-10T10:24:49;35.88;26.55
72128;DHT22;60000;51.030;7.024;2023-06-10T10:27:23;36.05;25.76
72128;DHT22;60000;51.030;7.024;2023-06-10T10:29:52;36.13;23.75
72128;DHT22;60000;51.030;7.024;2023-06-10T10:32:21;36.40;23.62
72128;DHT22;60000;51.030;7.024;2023-06-10T10:35:09;36.00;23.62
72128;DHT22;60000;51.030;7.024;2023-06-10T10:37:37;35.77;23.09
72128;DHT22;60000;51.030;7.024;2023-06-10T10:40:03;35.29;24.18
72128;DHT22;60000;51.030;7.024;2023-06-10T10:42:30;35.79;24.47
72128;DHT22;60000;51.030;7.024;2023-06-10T10:44:56;36.33;25.59
72128;DHT22;60000;51.030;7.024;2023-06-10T10:47:22;36.62;24.55
72128;DHT22;60000;51.030;7.024;2023-06-10T10:49:50;36.73;25.02
72128;DHT22;60000;51.030;7.024;2023-06-10T10:52:17;36.51;23.74
72128;DHT22;60000;51.030;7.024;2023-06-10T10:54:44;35.89;23.07
72128;DHT22;60000;51.030;7.024;2023-06-10T10:57:17;35.64;24.65
72128;DHT22;60000;51.030;7.024;2023-06-10T10:59:56;35.62;23.52
72128;DHT22;60000;51.030;7.024;2023-06-10T11:02:40;35.88;24.44
72128;DHT22;60000;51.030;7.024;2023-06-10T11:05:08;35.41;24.06
72128;DHT22;60000;51.030;7.024;2023-06-10T11:07:35;35.51;24.39
72128;DHT22;60000;51.030;7.024;2023-06-10T11:12:53;35.37;23.09
72128;DHT22;60000;51.030;7.024;2023-06-10T11:15:21;35.06;22.70
72128;DHT22;60000;51.030;7.024;2023-06-10T11:18:06;34.38;24.25
72128;DHT22;60000;51.030;7.024;2023-06-10T11:26:13;33.67;26.58
72128;DHT22;60000;51.030;7.024;2023-06-10T11:28:40;33.37;26.87
72128;DHT22;60000;51.030;7.024;2023-06-10T11:31:06;33.16;27.35
72128;DHT22;60000;51.030;7.024;2023-06-10T11:33:32;32.96;27.71
72128;DHT22;60000;51.030;7.024;2023-06-10T11:35:58;32.75;27.82
72128;DHT22;60000;51.030;7.024;2023-06-10T11:38:24;32.65;29.03
72128;DHT22;60000;51.030;7.024;2023-06-10T11:40:49;32.64;29.68
72128;DHT22;60000;51.030;7.024;2023-06-10T11:43:17;32.42;28.38
72128;DHT22;60000;51.030;7.024;2023-06-10T11:45:42;32.35;29.80
72128;DHT22;60000;51.030;7.024;2023-06-10T11:48:09;32.34;29.45
72128;DHT22;60000;51.030;7.024;2023-06-10T11:50:35;32.27;29.54
72128;DHT22;60000;51.030;7.024;2023-06-10T11:53:02;32.20;29.87
72128;DHT22;60000;51.030;7.024;2023-06-10T11:58:12;32.09;29.50
72128;DHT22;60000;51.030;7.024;2023-06-10T12:01:04;32.06;30.25
72128;DHT22;60000;51.030;7.024;2023-06-10T12:03:37;32.21;30.35
72128;DHT22;60000;51.030;7.024;2023-06-10T12:06:06;32.85;29.37
72128;DHT22;60000;51.030;7.024;2023-06-10T12:08:32;33.45;28.11
72128;DHT22;60000;51.030;7.024;2023-06-10T12:10:58;33.93;27.78
72128;DHT22;60000;51.030;7.024;2023-06-10T12:13:27;34.42;27.87
72128;DHT22;60000;51.030;7.024;2023-06-10T12:15:53;34.70;26.15
72128;DHT22;60000;51.030;7.024;2023-06-10T12:18:20;34.69;25.57
72128;DHT22;60000;51.030;7.024;2023-06-10T12:20:46;35.08;25.69
72128;DHT22;60000;51.030;7.024;2023-06-10T12:23:12;35.34;23.96
72128;DHT22;60000;51.030;7.024;2023-06-10T12:25:38;35.66;24.35
72128;DHT22;60000;51.030;7.024;2023-06-10T12:28:04;35.89;24.07
72128;DHT22;60000;51.030;7.024;2023-06-10T12:30:31;35.82;23.70
72128;DHT22;60000;51.030;7.024;2023-06-10T12:32:57;36.02;23.97
72128;DHT22;60000;51.030;7.024;2023-06-10T12:35:24;35.77;23.77
72128;DHT22;60000;51.030;7.024;2023-06-10T12:38:01;35.68;23.99
72128;DHT22;60000;51.030;7.024;2023-06-10T12:40:32;35.59;23.90
72128;DHT22;60000;51.030;7.024;2023-06-10T12:42:58;35.33;25.09
72128;DHT22;60000;51.030;7.024;2023-06-10T12:45:29;35.07;24.35
72128;DHT22;60000;51.030;7.024;2023-06-10T12:48:07;34.60;24.27
72128;DHT22;60000;51.030;7.024;2023-06-10T12:50:35;34.16;24.46
72128;DHT22;60000;51.030;7.024;2023-06-10T12:53:01;33.76;25.03
72128;DHT22;60000;51.030;7.024;2023-06-10T12:55:26;33.53;25.91
72128;DHT22;60000;51.030;7.024;2023-06-10T12:57:53;33.29;25.91
72128;DHT22;60000;51.030;7.024;2023-06-10T13:00:19;33.12;27.73
72128;DHT22;60000;51.030;7.024;2023-06-10T13:02:44;32.89;27.08
72128;DHT22;60000;51.030;7.024;2023-06-10T13:05:10;32.89;27.20
72128;DHT22;60000;51.030;7.024;2023-06-10T13:07:35;33.25;27.27
72128;DHT22;60000;51.030;7.024;2023-06-10T13:10:01;33.12;26.87
72128;DHT22;60000;51.030;7.024;2023-06-10T13:12:27;32.98;27.42
72128;DHT22;60000;51.030;7.024;2023-06-10T13:14:55;32.78;27.38
72128;DHT22;60000;51.030;7.024;2023-06-10T13:17:21;32.65;27.34
72128;DHT22;60000;51.030;7.024;2023-06-10T13:19:46;32.54;26.69
72128;DHT22;60000;51.030;7.024;2023-06-10T13:22:11;32.61;26.93
72128;DHT22;60000;51.030;7.024;2023-06-10T13:24:40;32.99;27.41
72128;DHT22;60000;51.030;7.024;2023-06-10T13:27:06;33.46;27.57
72128;DHT22;60000;51.030;7.024;2023-06-10T13:29:32;33.81;26.89
72128;DHT22;60000;51.030;7.024;2023-06-10T13:31:57;33.81;25.97
72128;DHT22;60000;51.030;7.024;2023-06-10T13:34:23;33.94;23.63
72128;DHT22;60000;51.030;7.024;2023-06-10T13:36:48;33.85;23.34
72128;DHT22;60000;51.030;7.024;2023-06-10T13:39:14;33.56;24.18
72128;DHT22;60000;51.030;7.024;2023-06-10T13:41:41;33.33;24.69
72128;DHT22;60000;51.030;7.024;2023-06-10T13:44:07;33.19;25.72
72128;DHT22;60000;51.030;7.024;2023-06-10T13:46:32;33.15;26.69
72128;DHT22;60000;51.030;7.024;2023-06-10T13:48:57;33.06;26.77
72128;DHT22;60000;51.030;7.024;2023-06-10T13:51:23;32.96;26.44
72128;DHT22;60000;51.030;7.024;2023-06-10T13:53:48;32.92;26.49
72128;DHT22;60000;51.030;7.024;2023-06-10T13:56:16;32.76;25.85
72128;DHT22;60000;51.030;7.024;2023-06-10T13:58:42;32.68;26.00
72128;DHT22;60000;51.030;7.024;2023-06-10T14:01:08;32.62;26.53
72128;DHT22;60000;51.030;7.024;2023-06-10T14:03:33;32.96;26.70
72128;DHT22;60000;51.030;7.024;2023-06-10T14:05:59;33.23;25.44
72128;DHT22;60000;51.030;7.024;2023-06-10T14:08:24;33.45;25.92
72128;DHT22;60000;51.030;7.024;2023-06-10T14:10:50;33.61;25.36
72128;DHT22;60000;51.030;7.024;2023-06-10T14:13:18;33.71;25.39
72128;DHT22;60000;51.030;7.024;2023-06-10T14:15:44;33.82;25.34
72128;DHT22;60000;51.030;7.024;2023-06-10T14:18:09;33.94;25.25
72128;DHT22;60000;51.030;7.024;2023-06-10T14:20:35;33.97;24.11
72128;DHT22;60000;51.030;7.024;2023-06-10T14:23:00;33.98;24.46
72128;DHT22;60000;51.030;7.024;2023-06-10T14:25:25;34.12;24.80
72128;DHT22;60000;51.030;7.024;2023-06-10T14:27:51;34.08;24.05
72128;DHT22;60000;51.030;7.024;2023-06-10T14:30:16;34.12;24.36
72128;DHT22;60000;51.030;7.024;2023-06-10T14:32:42;34.19;24.13
72128;DHT22;60000;51.030;7.024;2023-06-10T14:35:08;34.11;24.18
72128;DHT22;60000;51.030;7.024;2023-06-10T14:37:33;34.05;24.40
72128;DHT22;60000;51.030;7.024;2023-06-10T14:39:58;33.94;24.74
72128;DHT22;60000;51.030;7.024;2023-06-10T14:42:24;34.14;25.62
72128;DHT22;60000;51.030;7.024;2023-06-10T14:44:49;34.15;24.95
72128;DHT22;60000;51.030;7.024;2023-06-10T14:47:15;34.19;24.89
72128;DHT22;60000;51.030;7.024;2023-06-10T14:49:40;34.24;24.89
72128;DHT22;60000;51.030;7.024;2023-06-10T14:52:07;34.19;24.40
72128;DHT22;60000;51.030;7.024;2023-06-10T14:54:33;34.11;24.66
72128;DHT22;60000;51.030;7.024;2023-06-10T14:56:58;34.12;24.67
72128;DHT22;60000;51.030;7.024;2023-06-10T14:59:24;34.09;24.77
72128;DHT22;60000;51.030;7.024;2023-06-10T15:01:49;34.00;23.65
72128;DHT22;60000;51.030;7.024;2023-06-10T15:04:14;33.87;23.98
72128;DHT22;60000;51.030;7.024;2023-06-10T15:06:40;33.78;24.50
72128;DHT22;60000;51.030;7.024;2023-06-10T15:09:06;33.87;24.85
72128;DHT22;60000;51.030;7.024;2023-06-10T15:11:32;33.94;25.28
72128;DHT22;60000;51.030;7.024;2023-06-10T15:13:57;33.91;25.39
72128;DHT22;60000;51.030;7.024;2023-06-10T15:16:22;33.91;25.28
72128;DHT22;60000;51.030;7.024;2023-06-10T15:18:48;33.87;25.63
72128;DHT22;60000;51.030;7.024;2023-06-10T15:21:13;33.85;25.79
72128;DHT22;60000;51.030;7.024;2023-06-10T15:23:39;33.80;25.64
72128;DHT22;60000;51.030;7.024;2023-06-10T15:26:05;33.61;25.31
72128;DHT22;60000;51.030;7.024;2023-06-10T15:28:30;33.64;25.01
72128;DHT22;60000;51.030;7.024;2023-06-10T15:30:55;33.66;25.54
72128;DHT22;60000;51.030;7.024;2023-06-10T15:33:20;33.56;24.85
72128;DHT22;60000;51.030;7.024;2023-06-10T15:35:46;33.61;24.74
72128;DHT22;60000;51.030;7.024;2023-06-10T15:38:11;33.50;23.62
72128;DHT22;60000;51.030;7.024;2023-06-10T15:40:36;33.43;22.92